Decoded Metar for KLBL (LIBERAL in KS, USA) (IATA:LBL) | Meteo·Mobile Aviation Weather
aviador You're here:

KLBL Decoded Metar

LIBERAL in KS, USA
Report Time2019-01-19 02:05:00
UTC Time2019-01-19 02:30:54
Flight Rules ifr IFR
Wind360° at 26 Gusting to 34 kt
W.Decomp.*RWY 35: 26.0 kt HW 0 kt LCW
RWY 04: 16.7 kt HW 19.9 kt LCW
Visibility2012 m
Phenomena:Light Snow
Mist
Clouds:Overcast 008 Hf
Expected CloudBase > 400 ft AGL from Temp-Dew spread
Ceiling800 ft
Temp-1°C (ISA -10)
Dew Point-2°C (93% RH)
AAT-12.6°C
QNH1015 hPa
Density Alt1,650 ft
Elevation2,884 ft
Report Wrong Elevation
Raw Report
KLBL 190205Z AUTO 36026G34KT 1 1/4SM -SN BR OVC008 M01/M02 A2996
RMK AO2 PK WND 01034/0200 CIG 005V010 P0000 FZRANO=

Extra information for KLBL:More info

Metar Taf Metar & Taf Last 4 Metars F.Rules Stats Wind Profile Meteogram Temp Stats Airport Information Weather charts Add Link Nearby VenuesMetar ALERT Operation Metar Decoded Social comments

AIRNAV info for KLBL